createdAt,value
2023-02-11T00:00:21.862Z,83.97
2023-02-11T00:02:48.492Z,84.19
2023-02-11T00:05:15.627Z,84.16
2023-02-11T00:07:42.257Z,83.91
2023-02-11T00:10:09.390Z,84.33
2023-02-11T00:12:37.388Z,83.64
2023-02-11T00:15:06.008Z,83.60
2023-02-11T00:17:32.682Z,83.66
2023-02-11T00:19:59.422Z,84.09
2023-02-11T00:22:26.184Z,83.75
2023-02-11T00:24:52.842Z,84.25
2023-02-11T00:27:19.589Z,84.37
2023-02-11T00:29:46.348Z,84.33
2023-02-11T00:32:13.020Z,83.82
2023-02-11T00:34:39.703Z,84.29
2023-02-11T00:37:06.727Z,84.43
2023-02-11T00:39:33.400Z,84.29
2023-02-11T00:42:00.229Z,83.87
2023-02-11T00:44:26.895Z,83.87
2023-02-11T00:46:53.537Z,84.62
2023-02-11T00:49:20.296Z,84.42
2023-02-11T00:51:46.992Z,84.83
2023-02-11T00:54:13.646Z,84.50
2023-02-11T00:56:40.271Z,84.72
2023-02-11T00:59:06.942Z,84.74
2023-02-11T01:01:34.565Z,84.73
2023-02-11T01:04:01.298Z,84.62
2023-02-11T01:06:27.935Z,84.56
2023-02-11T01:08:54.663Z,85.04
2023-02-11T01:11:21.840Z,84.93
2023-02-11T01:13:49.870Z,85.07
2023-02-11T01:16:18.292Z,84.84
2023-02-11T01:18:46.062Z,85.46
2023-02-11T01:21:12.772Z,85.38
2023-02-11T01:23:39.469Z,85.28
2023-02-11T01:26:06.150Z,85.86
2023-02-11T01:28:33.464Z,85.48
2023-02-11T01:31:03.635Z,86.24
2023-02-11T01:33:30.511Z,86.80
2023-02-11T01:36:01.463Z,86.06
2023-02-11T01:38:28.174Z,86.56
2023-02-11T01:40:58.181Z,87.12
2023-02-11T01:43:27.248Z,87.36
2023-02-11T01:46:04.463Z,87.82
2023-02-11T01:48:38.698Z,88.61
2023-02-11T01:51:20.870Z,88.43
2023-02-11T01:54:06.958Z,88.17
2023-02-11T01:56:55.956Z,88.95
2023-02-11T01:59:26.809Z,88.87
2023-02-11T02:01:59.306Z,88.75
2023-02-11T02:04:31.546Z,88.63
2023-02-11T02:07:06.354Z,88.03
2023-02-11T02:09:39.623Z,88.04
2023-02-11T02:12:06.479Z,87.74
2023-02-11T02:14:33.180Z,88.81
2023-02-11T02:16:59.877Z,88.44
2023-02-11T02:20:09.057Z,89.32
2023-02-11T02:22:56.220Z,88.77
2023-02-11T02:25:48.117Z,89.11
2023-02-11T02:28:44.968Z,88.35
2023-02-11T02:31:50.648Z,88.87
2023-02-11T02:34:29.106Z,88.62
2023-02-11T02:37:04.446Z,88.56
2023-02-11T02:39:35.588Z,88.86
2023-02-11T02:42:03.440Z,88.38
2023-02-11T02:44:31.005Z,88.56
2023-02-11T02:46:57.852Z,88.20
2023-02-11T02:49:24.578Z,88.38
2023-02-11T02:52:01.863Z,87.65
2023-02-11T02:54:41.176Z,88.08
2023-02-11T02:57:21.139Z,88.25
2023-02-11T03:00:07.576Z,88.17
2023-02-11T03:02:36.988Z,87.80
2023-02-11T03:05:12.207Z,87.77
2023-02-11T03:07:49.067Z,88.21
2023-02-11T03:10:21.620Z,87.99
2023-02-11T03:12:49.507Z,88.09
2023-02-11T03:15:18.224Z,87.76
2023-02-11T03:17:48.546Z,87.93
2023-02-11T03:20:18.711Z,87.11
2023-02-11T03:22:50.777Z,87.56
2023-02-11T03:25:17.915Z,87.56
2023-02-11T03:27:52.093Z,87.22
2023-02-11T03:30:30.580Z,87.35
2023-02-11T03:33:34.606Z,86.95
2023-02-11T03:36:07.623Z,86.96
2023-02-11T03:38:38.250Z,86.99
2023-02-11T03:41:07.768Z,87.25
2023-02-11T03:43:42.813Z,86.96
2023-02-11T03:46:11.516Z,86.93
2023-02-11T03:48:42.327Z,86.48
2023-02-11T03:51:12.382Z,86.70
2023-02-11T03:53:42.924Z,86.79
2023-02-11T03:56:15.271Z,86.66
2023-02-11T03:58:44.468Z,86.72
2023-02-11T04:01:11.536Z,86.92
2023-02-11T04:03:38.336Z,86.74
2023-02-11T04:06:05.238Z,86.85
2023-02-11T04:08:32.807Z,86.52
2023-02-11T04:10:59.504Z,86.87
2023-02-11T04:13:26.330Z,86.31
2023-02-11T04:15:53.415Z,86.82
2023-02-11T04:18:20.424Z,86.24
2023-02-11T04:20:48.055Z,86.57
2023-02-11T04:23:14.724Z,86.41
2023-02-11T04:25:42.361Z,86.95
2023-02-11T04:28:09.075Z,86.89
2023-02-11T04:30:35.720Z,86.64
2023-02-11T04:33:02.370Z,86.53
2023-02-11T04:35:29.025Z,86.29
2023-02-11T04:37:55.643Z,86.55
2023-02-11T04:40:22.334Z,86.43
2023-02-11T04:42:48.962Z,86.29
2023-02-11T04:45:15.671Z,86.46
2023-02-11T04:47:42.314Z,86.59
2023-02-11T04:50:09.208Z,86.35
2023-02-11T04:52:35.874Z,86.61
2023-02-11T04:55:02.508Z,86.74
2023-02-11T04:57:29.133Z,86.46
2023-02-11T04:59:55.817Z,86.26
2023-02-11T05:02:22.794Z,86.42
2023-02-11T05:04:49.443Z,86.71
2023-02-11T05:07:16.238Z,86.16
2023-02-11T05:09:42.884Z,86.17
2023-02-11T05:12:09.675Z,86.60
2023-02-11T05:14:36.339Z,86.89
2023-02-11T05:17:03.079Z,86.49
2023-02-11T05:19:31.882Z,86.45
2023-02-11T05:22:02.999Z,86.61
2023-02-11T05:24:32.140Z,86.79
2023-02-11T05:26:59.192Z,86.71
2023-02-11T05:29:26.031Z,86.87
2023-02-11T05:31:53.089Z,86.34
2023-02-11T05:34:19.767Z,86.54
2023-02-11T05:36:46.409Z,86.53
2023-02-11T05:39:13.067Z,86.59
2023-02-11T05:41:39.756Z,86.51
2023-02-11T05:44:06.410Z,86.50
2023-02-11T05:46:33.106Z,86.57
2023-02-11T05:48:59.840Z,87.33
2023-02-11T05:51:26.518Z,86.92
2023-02-11T05:53:53.311Z,87.59
2023-02-11T05:56:20.013Z,87.26
2023-02-11T05:58:46.832Z,87.63
2023-02-11T06:01:13.520Z,87.44
2023-02-11T06:03:40.340Z,87.28
2023-02-11T06:06:11.855Z,87.51
2023-02-11T06:08:39.499Z,87.28
2023-02-11T06:11:06.217Z,87.44
2023-02-11T06:13:32.988Z,87.62
2023-02-11T06:16:01.370Z,87.51
2023-02-11T06:18:28.839Z,87.75
2023-02-11T06:20:55.576Z,87.62
2023-02-11T06:23:22.598Z,87.68
2023-02-11T06:25:50.100Z,87.83
2023-02-11T06:28:17.076Z,88.13
2023-02-11T06:30:43.873Z,88.27
2023-02-11T06:33:10.633Z,88.30
2023-02-11T06:35:40.335Z,87.97
2023-02-11T06:38:07.168Z,87.81
2023-02-11T06:40:33.846Z,88.68
2023-02-11T06:43:00.500Z,88.46
2023-02-11T06:45:27.155Z,88.25
2023-02-11T06:47:53.811Z,88.82
2023-02-11T06:50:20.536Z,88.60
2023-02-11T06:52:47.387Z,88.73
2023-02-11T06:55:14.285Z,88.69
2023-02-11T06:57:40.996Z,88.54
2023-02-11T07:00:08.440Z,89.14
2023-02-11T07:02:35.844Z,89.01
2023-02-11T07:05:02.332Z,89.17
2023-02-11T07:07:28.828Z,88.63
2023-02-11T07:09:55.303Z,89.38
2023-02-11T07:12:21.776Z,88.58
2023-02-11T07:14:48.245Z,88.72
2023-02-11T07:17:14.802Z,89.36
2023-02-11T07:19:41.352Z,89.28
2023-02-11T07:22:07.811Z,89.12
2023-02-11T07:24:34.285Z,88.86
2023-02-11T07:27:00.767Z,89.23
2023-02-11T07:29:27.403Z,88.84
2023-02-11T07:31:53.985Z,88.88
2023-02-11T07:34:20.572Z,89.28
2023-02-11T07:36:48.850Z,89.32
2023-02-11T07:39:15.436Z,88.66
2023-02-11T07:41:44.389Z,89.55
2023-02-11T07:44:10.886Z,89.50
2023-02-11T07:46:37.372Z,89.89
2023-02-11T07:49:04.211Z,89.51
2023-02-11T07:51:31.377Z,90.38
2023-02-11T07:53:59.202Z,89.94
2023-02-11T07:56:26.498Z,90.26
2023-02-11T07:58:53.029Z,90.42
2023-02-11T08:01:24.887Z,90.72
2023-02-11T08:03:51.827Z,90.61
2023-02-11T08:06:20.330Z,91.02
2023-02-11T08:08:47.147Z,91.01
2023-02-11T08:11:18.618Z,91.15
2023-02-11T08:13:45.443Z,91.31
2023-02-11T08:16:23.632Z,91.54
2023-02-11T08:18:51.256Z,91.71
2023-02-11T08:21:19.164Z,91.44
2023-02-11T08:23:46.433Z,91.32
2023-02-11T08:26:22.407Z,91.63
2023-02-11T08:28:51.019Z,92.06
2023-02-11T08:31:26.599Z,91.90
2023-02-11T08:33:54.650Z,91.65
2023-02-11T08:36:23.920Z,91.72
2023-02-11T08:38:50.385Z,91.70
2023-02-11T08:41:17.722Z,91.39
2023-02-11T08:43:45.390Z,91.58
2023-02-11T08:46:14.659Z,92.18
2023-02-11T08:48:41.139Z,91.84
2023-02-11T08:51:09.697Z,92.04
2023-02-11T08:53:36.780Z,92.28
2023-02-11T08:56:03.314Z,92.25
2023-02-11T08:58:29.865Z,92.40
2023-02-11T09:00:56.432Z,92.62
2023-02-11T09:03:23.115Z,92.35
2023-02-11T09:05:53.026Z,92.33
2023-02-11T09:08:20.716Z,92.54
2023-02-11T09:10:47.691Z,92.45
2023-02-11T09:13:14.536Z,92.90
2023-02-11T09:15:45.193Z,91.99
2023-02-11T09:18:12.304Z,92.00
2023-02-11T09:20:38.928Z,92.56
2023-02-11T09:23:05.575Z,92.52
2023-02-11T09:25:32.240Z,92.78
2023-02-11T09:27:58.924Z,92.91
2023-02-11T09:30:25.616Z,92.66
2023-02-11T09:32:52.243Z,92.56
2023-02-11T09:35:19.050Z,92.69
2023-02-11T09:37:45.727Z,92.45
2023-02-11T09:40:14.558Z,92.42
2023-02-11T09:43:11.622Z,92.79
2023-02-11T09:45:38.468Z,92.56
2023-02-11T09:48:12.432Z,92.48
2023-02-11T09:50:44.150Z,92.41
2023-02-11T09:53:24.052Z,92.42
2023-02-11T09:56:00.197Z,92.35
2023-02-11T09:58:30.523Z,92.68
2023-02-11T10:01:25.137Z,92.57
2023-02-11T10:04:07.058Z,92.82
2023-02-11T10:06:41.492Z,92.73
2023-02-11T10:09:44.663Z,92.74
2023-02-11T10:12:44.592Z,92.71
2023-02-11T10:15:49.522Z,92.37
2023-02-11T10:18:28.088Z,92.53
2023-02-11T10:21:09.120Z,92.38
2023-02-11T10:23:39.669Z,92.48
2023-02-11T10:26:13.200Z,92.04
2023-02-11T10:28:50.203Z,91.77
2023-02-11T10:31:27.554Z,92.02
2023-02-11T10:34:00.411Z,92.07
2023-02-11T10:36:35.189Z,91.56
2023-02-11T10:39:16.549Z,91.94
2023-02-11T10:42:09.446Z,91.59
2023-02-11T10:44:41.520Z,91.24
2023-02-11T10:47:18.757Z,91.76
2023-02-11T10:49:48.999Z,91.63
2023-02-11T10:52:27.793Z,91.85
2023-02-11T10:55:14.321Z,91.71
2023-02-11T10:57:53.814Z,91.91
2023-02-11T11:00:42.368Z,91.45
2023-02-11T11:03:27.321Z,91.64
2023-02-11T11:06:01.892Z,91.73
2023-02-11T11:08:51.734Z,91.89
2023-02-11T11:11:23.985Z,92.19
2023-02-11T11:13:53.398Z,91.88
2023-02-11T11:16:21.981Z,91.85
2023-02-11T11:19:13.600Z,91.77
2023-02-11T11:21:49.171Z,92.09
2023-02-11T11:24:44.263Z,91.82
2023-02-11T11:27:19.243Z,91.57
2023-02-11T11:29:49.988Z,91.78
2023-02-11T11:32:32.686Z,92.06
2023-02-11T11:35:03.463Z,92.15
2023-02-11T11:37:33.028Z,91.96
2023-02-11T11:40:22.047Z,91.94
2023-02-11T11:43:04.216Z,91.93
2023-02-11T11:45:30.937Z,91.95
2023-02-11T11:48:15.940Z,92.19
2023-02-11T11:50:44.667Z,92.22
2023-02-11T11:53:23.063Z,91.89
2023-02-11T11:56:09.772Z,92.28
2023-02-11T11:58:36.688Z,92.36
2023-02-11T12:01:09.288Z,92.11
2023-02-11T12:04:14.112Z,92.00
2023-02-11T12:07:13.182Z,92.16
2023-02-11T12:10:23.649Z,92.21
2023-02-11T12:13:07.014Z,92.21
2023-02-11T12:15:40.994Z,91.88
2023-02-11T12:18:32.868Z,91.81
2023-02-11T12:21:14.898Z,91.87
2023-02-11T12:23:59.972Z,91.74
2023-02-11T12:26:38.252Z,92.28
2023-02-11T12:29:24.027Z,92.08
2023-02-11T12:32:17.563Z,92.16
2023-02-11T12:35:19.504Z,92.15
2023-02-11T12:38:18.577Z,91.99
2023-02-11T12:41:10.132Z,91.83
2023-02-11T12:43:42.235Z,92.20
2023-02-11T12:46:33.798Z,92.23
2023-02-11T12:49:22.495Z,92.14
2023-02-11T12:52:11.316Z,92.66
2023-02-11T12:54:56.273Z,92.15
2023-02-11T12:57:26.603Z,92.27
2023-02-11T13:00:00.552Z,92.19
2023-02-11T13:02:36.958Z,92.18
2023-02-11T13:05:28.499Z,92.09
2023-02-11T13:08:02.844Z,92.32
2023-02-11T13:10:36.032Z,92.08
2023-02-11T13:13:18.787Z,92.03
2023-02-11T13:16:03.895Z,91.98
2023-02-11T13:18:40.075Z,92.06
2023-02-11T13:21:16.210Z,92.17
2023-02-11T13:23:59.763Z,92.24
2023-02-11T13:26:40.566Z,92.51
2023-02-11T13:29:33.149Z,92.50
2023-02-11T13:32:09.540Z,92.52
2023-02-11T13:34:42.334Z,92.44
2023-02-11T13:37:29.378Z,92.08
2023-02-11T13:40:18.944Z,92.19
2023-02-11T13:42:56.149Z,92.43
2023-02-11T13:45:38.431Z,92.26
2023-02-11T13:48:15.394Z,92.58
2023-02-11T13:50:51.815Z,92.50
2023-02-11T13:53:19.194Z,92.58
2023-02-11T13:55:48.968Z,92.59
2023-02-11T13:58:17.324Z,92.60
2023-02-11T14:00:51.214Z,92.55
2023-02-11T14:03:50.937Z,92.64
2023-02-11T14:06:43.371Z,92.27
2023-02-11T14:09:10.089Z,92.86
2023-02-11T14:12:20.719Z,92.42
2023-02-11T14:15:07.731Z,92.48
2023-02-11T14:17:34.966Z,92.48
2023-02-11T14:20:04.574Z,92.73
2023-02-11T14:22:47.174Z,92.37
2023-02-11T14:25:25.277Z,92.73
2023-02-11T14:28:25.762Z,92.75
2023-02-11T14:31:03.671Z,92.93
2023-02-11T14:33:51.468Z,92.80
2023-02-11T14:36:30.493Z,93.28
2023-02-11T14:39:13.714Z,93.17
2023-02-11T14:41:52.926Z,93.36
2023-02-11T14:44:25.148Z,93.18
2023-02-11T14:46:53.653Z,93.02
2023-02-11T14:49:30.775Z,93.25
2023-02-11T14:52:17.003Z,93.13
2023-02-11T14:54:44.812Z,93.12
2023-02-11T14:57:15.827Z,92.99
2023-02-11T15:00:02.357Z,93.17
2023-02-11T15:02:37.514Z,93.22
2023-02-11T15:05:26.483Z,93.13
2023-02-11T15:07:59.352Z,93.24
2023-02-11T15:10:32.790Z,93.38
2023-02-11T15:13:02.000Z,92.89
2023-02-11T15:15:29.446Z,93.13
2023-02-11T15:17:59.389Z,93.02
2023-02-11T15:20:29.030Z,93.46
2023-02-11T15:22:59.888Z,93.42
2023-02-11T15:25:28.058Z,93.48
2023-02-11T15:27:57.041Z,93.13
2023-02-11T15:30:23.725Z,92.89
2023-02-11T15:32:58.681Z,93.06
2023-02-11T15:35:28.482Z,92.82
2023-02-11T15:37:56.521Z,92.43
2023-02-11T15:40:32.220Z,93.37
2023-02-11T15:43:09.978Z,93.17
2023-02-11T15:45:40.218Z,93.18
2023-02-11T15:48:12.536Z,92.92
2023-02-11T15:50:41.249Z,92.92
2023-02-11T15:53:26.448Z,92.70
2023-02-11T15:56:01.595Z,92.80
2023-02-11T15:58:28.540Z,92.83
2023-02-11T16:00:59.604Z,93.09
2023-02-11T16:03:32.758Z,93.34
2023-02-11T16:06:20.653Z,93.25
2023-02-11T16:08:58.918Z,93.30
2023-02-11T16:11:30.389Z,93.25
2023-02-11T16:13:59.044Z,92.93
2023-02-11T16:16:31.862Z,92.94
2023-02-11T16:19:06.274Z,92.89
2023-02-11T16:21:38.829Z,92.99
2023-02-11T16:24:07.861Z,93.19
2023-02-11T16:26:39.272Z,93.13
2023-02-11T16:29:11.347Z,93.63
2023-02-11T16:31:41.163Z,93.52
2023-02-11T16:34:18.434Z,93.53
2023-02-11T16:36:46.110Z,93.18
2023-02-11T16:39:13.480Z,93.05
2023-02-11T16:41:40.596Z,93.26
2023-02-11T16:44:07.257Z,93.64
2023-02-11T16:46:34.340Z,93.41
2023-02-11T16:49:11.440Z,93.30
2023-02-11T16:51:39.933Z,93.79
2023-02-11T16:54:06.636Z,93.45
2023-02-11T16:56:33.254Z,93.69
2023-02-11T16:59:00.595Z,93.38
2023-02-11T17:01:27.535Z,93.72
2023-02-11T17:03:54.312Z,93.54
2023-02-11T17:06:20.971Z,93.55
2023-02-11T17:08:47.635Z,93.74
2023-02-11T17:11:16.658Z,93.47
2023-02-11T17:13:44.026Z,93.60
2023-02-11T17:16:18.120Z,93.65
2023-02-11T17:18:45.355Z,93.35
2023-02-11T17:21:15.523Z,93.16
2023-02-11T17:23:42.636Z,93.11
2023-02-11T17:26:09.328Z,93.41
2023-02-11T17:28:36.036Z,93.60
2023-02-11T17:31:07.631Z,93.53
2023-02-11T17:33:36.187Z,93.41
2023-02-11T17:36:07.776Z,93.58
2023-02-11T17:38:35.326Z,93.57
2023-02-11T17:41:03.063Z,93.80
2023-02-11T17:43:29.725Z,93.48
2023-02-11T17:45:56.585Z,93.42
2023-02-11T17:48:23.975Z,93.12
2023-02-11T17:50:50.994Z,93.65
2023-02-11T17:53:17.632Z,93.53
2023-02-11T17:55:44.260Z,93.11
2023-02-11T17:58:10.891Z,93.40
2023-02-11T18:00:37.559Z,93.58
2023-02-11T18:03:04.381Z,93.62
2023-02-11T18:05:37.546Z,93.31
2023-02-11T18:08:06.341Z,93.17
2023-02-11T18:10:33.755Z,93.46
2023-02-11T18:13:01.568Z,93.37
2023-02-11T18:15:28.282Z,93.41
2023-02-11T18:17:55.516Z,93.61
2023-02-11T18:20:22.193Z,93.21
2023-02-11T18:22:48.828Z,93.27
2023-02-11T18:25:16.044Z,93.32
2023-02-11T18:27:43.099Z,93.39
2023-02-11T18:30:19.505Z,93.58
2023-02-11T18:32:46.286Z,93.19
2023-02-11T18:35:15.150Z,93.44
2023-02-11T18:37:43.116Z,93.41
2023-02-11T18:40:10.950Z,93.53
2023-02-11T18:42:37.944Z,93.36
2023-02-11T18:45:12.118Z,93.61
2023-02-11T18:47:40.054Z,93.32
2023-02-11T18:50:11.159Z,93.17
2023-02-11T18:52:38.610Z,93.52
2023-02-11T18:55:06.109Z,93.43
2023-02-11T18:57:32.781Z,93.36
2023-02-11T18:59:59.432Z,93.22
2023-02-11T19:02:26.272Z,93.27
2023-02-11T19:04:52.913Z,92.99
2023-02-11T19:07:19.585Z,93.63
2023-02-11T19:09:46.217Z,93.48
2023-02-11T19:12:12.882Z,93.47
2023-02-11T19:14:39.531Z,93.42
2023-02-11T19:17:07.570Z,93.28
2023-02-11T19:19:35.539Z,93.03
2023-02-11T19:22:03.506Z,93.24
2023-02-11T19:24:30.556Z,93.29
2023-02-11T19:27:00.393Z,93.34
2023-02-11T19:29:27.616Z,93.52
2023-02-11T19:31:54.595Z,93.20
2023-02-11T19:34:21.592Z,93.19
2023-02-11T19:36:49.506Z,93.33
2023-02-11T19:39:16.807Z,93.36
2023-02-11T19:41:43.483Z,93.03
2023-02-11T19:44:10.434Z,92.95
2023-02-11T19:46:40.731Z,93.43
2023-02-11T19:49:07.692Z,93.20
2023-02-11T19:51:36.822Z,93.40
2023-02-11T19:54:03.671Z,93.25
2023-02-11T19:56:30.280Z,93.22
2023-02-11T19:58:57.324Z,93.14
2023-02-11T20:01:25.580Z,93.27
2023-02-11T20:03:54.870Z,93.27
2023-02-11T20:06:27.973Z,93.11
2023-02-11T20:09:00.074Z,93.48
2023-02-11T20:11:29.645Z,93.19
2023-02-11T20:13:57.021Z,93.18
2023-02-11T20:16:40.683Z,93.09
2023-02-11T20:19:16.693Z,93.36
2023-02-11T20:21:46.701Z,93.36
2023-02-11T20:24:13.992Z,93.50
2023-02-11T20:26:42.261Z,92.95
2023-02-11T20:29:09.663Z,93.44
2023-02-11T20:31:36.676Z,93.58
2023-02-11T20:34:03.419Z,93.57
2023-02-11T20:36:34.058Z,93.74
2023-02-11T20:39:02.202Z,93.44
2023-02-11T20:41:34.070Z,93.40
2023-02-11T20:44:04.122Z,93.48
2023-02-11T20:46:33.128Z,93.28
2023-02-11T20:49:01.017Z,93.37
2023-02-11T20:51:31.440Z,93.12
2023-02-11T20:53:58.443Z,93.21
2023-02-11T20:56:28.794Z,93.43
2023-02-11T20:58:57.598Z,93.25
2023-02-11T21:01:27.091Z,93.46
2023-02-11T21:03:59.276Z,93.46
2023-02-11T21:06:30.951Z,93.09
2023-02-11T21:08:57.623Z,93.23
2023-02-11T21:11:24.277Z,93.32
2023-02-11T21:13:51.039Z,93.36
2023-02-11T21:16:22.498Z,93.23
2023-02-11T21:18:50.320Z,93.17
2023-02-11T21:21:18.602Z,93.34
2023-02-11T21:23:45.923Z,93.21
2023-02-11T21:26:15.078Z,93.26
2023-02-11T21:28:41.873Z,93.46
2023-02-11T21:31:09.680Z,93.47
2023-02-11T21:33:36.400Z,93.32
2023-02-11T21:36:04.394Z,93.12
2023-02-11T21:38:31.154Z,93.30
2023-02-11T21:41:05.547Z,93.51
2023-02-11T21:43:32.590Z,93.68
2023-02-11T21:45:59.538Z,93.43
2023-02-11T21:48:26.684Z,93.38
2023-02-11T21:50:53.877Z,93.15
2023-02-11T21:53:20.500Z,93.23
2023-02-11T21:55:47.166Z,92.88
2023-02-11T21:58:14.253Z,93.36
2023-02-11T22:00:40.984Z,93.38
2023-02-11T22:03:07.835Z,93.38
2023-02-11T22:05:34.446Z,93.65
2023-02-11T22:08:01.103Z,93.68
2023-02-11T22:10:27.777Z,93.48
2023-02-11T22:12:54.413Z,93.55
2023-02-11T22:15:21.097Z,93.46
2023-02-11T22:17:47.749Z,93.49
2023-02-11T22:20:16.777Z,93.64
2023-02-11T22:22:43.436Z,93.48
2023-02-11T22:25:10.140Z,93.77
2023-02-11T22:27:36.835Z,93.88
2023-02-11T22:30:04.624Z,94.09
2023-02-11T22:32:31.262Z,94.08
2023-02-11T22:34:57.904Z,93.66
2023-02-11T22:37:24.508Z,93.70
2023-02-11T22:39:51.154Z,93.79
2023-02-11T22:42:17.818Z,93.61
2023-02-11T22:44:44.771Z,93.58
2023-02-11T22:47:11.437Z,93.92
2023-02-11T22:49:39.451Z,93.76
2023-02-11T22:52:06.096Z,93.79
2023-02-11T22:54:32.772Z,93.78
2023-02-11T22:56:59.420Z,93.91
2023-02-11T22:59:26.033Z,93.71
2023-02-11T23:01:52.784Z,93.77
2023-02-11T23:04:19.542Z,93.99
2023-02-11T23:06:47.694Z,93.62
2023-02-11T23:09:14.435Z,93.65
2023-02-11T23:11:41.513Z,93.70
2023-02-11T23:14:10.007Z,93.84
2023-02-11T23:16:36.718Z,93.38
2023-02-11T23:19:06.406Z,93.67
2023-02-11T23:21:36.594Z,93.33
2023-02-11T23:24:10.141Z,93.68
2023-02-11T23:26:39.201Z,93.37
2023-02-11T23:29:06.195Z,93.56
2023-02-11T23:31:37.408Z,93.34
2023-02-11T23:34:04.554Z,93.23
2023-02-11T23:36:32.256Z,93.39
2023-02-11T23:38:58.977Z,93.34
2023-02-11T23:41:26.134Z,93.44
2023-02-11T23:43:55.157Z,93.24
2023-02-11T23:46:23.803Z,93.17
2023-02-11T23:48:51.501Z,93.19
2023-02-11T23:51:18.765Z,93.22
2023-02-11T23:53:46.144Z,92.98
2023-02-11T23:56:19.908Z,93.06
2023-02-11T23:58:51.454Z,93.13
